sensor_id;sensor_type;location;lat;lon;timestamp;P1;durP1;ratioP1;P2;durP2;ratioP2
4738;SDS011;2383;48.632;10.156;2022-07-10T00:00:51;4.32;;;3.45;;
4738;SDS011;2383;48.632;10.156;2022-07-10T00:04:53;5.43;;;3.63;;
4738;SDS011;2383;48.632;10.156;2022-07-10T00:08:55;5.80;;;3.67;;
4738;SDS011;2383;48.632;10.156;2022-07-10T00:12:56;3.55;;;3.25;;
4738;SDS011;2383;48.632;10.156;2022-07-10T00:16:59;3.92;;;3.47;;
4738;SDS011;2383;48.632;10.156;2022-07-10T00:21:01;6.88;;;3.33;;
4738;SDS011;2383;48.632;10.156;2022-07-10T00:25:07;3.85;;;3.35;;
4738;SDS011;2383;48.632;10.156;2022-07-10T00:29:10;4.35;;;3.20;;
4738;SDS011;2383;48.632;10.156;2022-07-10T00:33:12;4.82;;;3.50;;
4738;SDS011;2383;48.632;10.156;2022-07-10T00:37:14;4.60;;;3.20;;
4738;SDS011;2383;48.632;10.156;2022-07-10T00:41:17;4.07;;;3.60;;
4738;SDS011;2383;48.632;10.156;2022-07-10T00:45:19;4.05;;;3.70;;
4738;SDS011;2383;48.632;10.156;2022-07-10T00:49:22;4.28;;;3.88;;
4738;SDS011;2383;48.632;10.156;2022-07-10T00:53:24;3.97;;;3.42;;
4738;SDS011;2383;48.632;10.156;2022-07-10T00:57:25;4.00;;;3.60;;
4738;SDS011;2383;48.632;10.156;2022-07-10T01:01:27;5.88;;;3.42;;
4738;SDS011;2383;48.632;10.156;2022-07-10T01:05:29;4.43;;;3.60;;
4738;SDS011;2383;48.632;10.156;2022-07-10T01:09:32;3.90;;;3.50;;
4738;SDS011;2383;48.632;10.156;2022-07-10T01:13:35;7.45;;;4.05;;
4738;SDS011;2383;48.632;10.156;2022-07-10T01:17:37;4.80;;;4.40;;
4738;SDS011;2383;48.632;10.156;2022-07-10T01:21:39;4.78;;;3.97;;
4738;SDS011;2383;48.632;10.156;2022-07-10T01:25:41;5.63;;;3.97;;
4738;SDS011;2383;48.632;10.156;2022-07-10T01:29:45;5.35;;;4.03;;
4738;SDS011;2383;48.632;10.156;2022-07-10T01:33:48;4.60;;;4.20;;
4738;SDS011;2383;48.632;10.156;2022-07-10T01:37:49;6.25;;;4.43;;
4738;SDS011;2383;48.632;10.156;2022-07-10T01:41:51;8.50;;;4.35;;
4738;SDS011;2383;48.632;10.156;2022-07-10T01:45:53;4.47;;;4.07;;
4738;SDS011;2383;48.632;10.156;2022-07-10T01:49:55;6.28;;;4.45;;
4738;SDS011;2383;48.632;10.156;2022-07-10T01:53:57;4.80;;;4.03;;
4738;SDS011;2383;48.632;10.156;2022-07-10T01:57:58;4.80;;;4.40;;
4738;SDS011;2383;48.632;10.156;2022-07-10T02:02:00;5.25;;;4.35;;
4738;SDS011;2383;48.632;10.156;2022-07-10T02:06:02;7.40;;;4.63;;
4738;SDS011;2383;48.632;10.156;2022-07-10T02:10:04;5.15;;;4.38;;
4738;SDS011;2383;48.632;10.156;2022-07-10T02:14:06;4.95;;;4.20;;
4738;SDS011;2383;48.632;10.156;2022-07-10T02:18:09;4.88;;;3.97;;
4738;SDS011;2383;48.632;10.156;2022-07-10T02:22:11;5.20;;;3.80;;
4738;SDS011;2383;48.632;10.156;2022-07-10T02:26:13;5.22;;;4.47;;
4738;SDS011;2383;48.632;10.156;2022-07-10T02:30:14;4.78;;;4.38;;
4738;SDS011;2383;48.632;10.156;2022-07-10T02:34:19;6.55;;;4.68;;
4738;SDS011;2383;48.632;10.156;2022-07-10T02:38:20;7.57;;;3.95;;
4738;SDS011;2383;48.632;10.156;2022-07-10T02:42:22;4.63;;;4.18;;
4738;SDS011;2383;48.632;10.156;2022-07-10T02:46:24;6.00;;;4.13;;
4738;SDS011;2383;48.632;10.156;2022-07-10T02:50:26;4.40;;;4.00;;
4738;SDS011;2383;48.632;10.156;2022-07-10T02:54:28;4.90;;;4.40;;
4738;SDS011;2383;48.632;10.156;2022-07-10T02:58:30;5.28;;;4.78;;
4738;SDS011;2383;48.632;10.156;2022-07-10T03:02:33;5.28;;;4.65;;
4738;SDS011;2383;48.632;10.156;2022-07-10T03:06:36;5.60;;;4.47;;
4738;SDS011;2383;48.632;10.156;2022-07-10T03:10:38;5.72;;;4.90;;
4738;SDS011;2383;48.632;10.156;2022-07-10T03:14:40;4.85;;;4.20;;
4738;SDS011;2383;48.632;10.156;2022-07-10T03:18:41;5.93;;;3.90;;
4738;SDS011;2383;48.632;10.156;2022-07-10T03:22:44;4.90;;;4.30;;
4738;SDS011;2383;48.632;10.156;2022-07-10T03:26:46;5.80;;;4.28;;
4738;SDS011;2383;48.632;10.156;2022-07-10T03:30:48;7.32;;;4.53;;
4738;SDS011;2383;48.632;10.156;2022-07-10T03:34:50;7.95;;;5.20;;
4738;SDS011;2383;48.632;10.156;2022-07-10T03:38:52;15.00;;;4.88;;
4738;SDS011;2383;48.632;10.156;2022-07-10T03:42:54;6.10;;;3.92;;
4738;SDS011;2383;48.632;10.156;2022-07-10T03:46:55;6.57;;;4.40;;
4738;SDS011;2383;48.632;10.156;2022-07-10T03:50:57;6.30;;;4.70;;
4738;SDS011;2383;48.632;10.156;2022-07-10T03:54:59;5.93;;;4.72;;
4738;SDS011;2383;48.632;10.156;2022-07-10T03:59:02;7.20;;;5.07;;
4738;SDS011;2383;48.632;10.156;2022-07-10T04:03:06;4.95;;;4.20;;
4738;SDS011;2383;48.632;10.156;2022-07-10T04:07:11;6.35;;;4.53;;
4738;SDS011;2383;48.632;10.156;2022-07-10T04:11:14;6.47;;;4.50;;
4738;SDS011;2383;48.632;10.156;2022-07-10T04:15:15;7.28;;;5.72;;
4738;SDS011;2383;48.632;10.156;2022-07-10T04:19:17;6.80;;;5.43;;
4738;SDS011;2383;48.632;10.156;2022-07-10T04:23:19;9.38;;;6.13;;
4738;SDS011;2383;48.632;10.156;2022-07-10T04:27:21;8.48;;;6.25;;
4738;SDS011;2383;48.632;10.156;2022-07-10T04:31:23;7.85;;;6.07;;
4738;SDS011;2383;48.632;10.156;2022-07-10T04:35:25;6.07;;;5.35;;
4738;SDS011;2383;48.632;10.156;2022-07-10T04:39:26;6.20;;;5.30;;
4738;SDS011;2383;48.632;10.156;2022-07-10T04:43:29;7.75;;;5.18;;
4738;SDS011;2383;48.632;10.156;2022-07-10T04:47:32;6.70;;;4.55;;
4738;SDS011;2383;48.632;10.156;2022-07-10T04:51:33;8.60;;;5.20;;
4738;SDS011;2383;48.632;10.156;2022-07-10T04:55:35;8.85;;;5.00;;
4738;SDS011;2383;48.632;10.156;2022-07-10T04:59:37;7.20;;;4.85;;
4738;SDS011;2383;48.632;10.156;2022-07-10T05:03:41;6.75;;;4.72;;
4738;SDS011;2383;48.632;10.156;2022-07-10T05:07:42;6.32;;;5.07;;
4738;SDS011;2383;48.632;10.156;2022-07-10T05:11:44;5.63;;;4.93;;
4738;SDS011;2383;48.632;10.156;2022-07-10T05:15:46;6.65;;;5.20;;
4738;SDS011;2383;48.632;10.156;2022-07-10T05:19:48;7.47;;;4.78;;
4738;SDS011;2383;48.632;10.156;2022-07-10T05:23:57;7.20;;;4.75;;
4738;SDS011;2383;48.632;10.156;2022-07-10T05:27:59;9.55;;;4.75;;
4738;SDS011;2383;48.632;10.156;2022-07-10T05:32:01;5.95;;;4.95;;
4738;SDS011;2383;48.632;10.156;2022-07-10T05:36:03;5.50;;;4.65;;
4738;SDS011;2383;48.632;10.156;2022-07-10T05:40:05;7.80;;;5.00;;
4738;SDS011;2383;48.632;10.156;2022-07-10T05:44:07;7.00;;;5.00;;
4738;SDS011;2383;48.632;10.156;2022-07-10T05:48:12;5.78;;;3.75;;
4738;SDS011;2383;48.632;10.156;2022-07-10T05:52:14;8.70;;;3.92;;
4738;SDS011;2383;48.632;10.156;2022-07-10T05:56:16;6.25;;;4.50;;
4738;SDS011;2383;48.632;10.156;2022-07-10T06:00:18;7.28;;;4.32;;
4738;SDS011;2383;48.632;10.156;2022-07-10T06:04:20;6.82;;;3.50;;
4738;SDS011;2383;48.632;10.156;2022-07-10T06:08:22;5.50;;;3.60;;
4738;SDS011;2383;48.632;10.156;2022-07-10T06:12:24;6.63;;;3.60;;
4738;SDS011;2383;48.632;10.156;2022-07-10T06:16:26;7.63;;;3.70;;
4738;SDS011;2383;48.632;10.156;2022-07-10T06:20:28;10.10;;;4.30;;
4738;SDS011;2383;48.632;10.156;2022-07-10T06:24:30;6.30;;;4.18;;
4738;SDS011;2383;48.632;10.156;2022-07-10T06:28:33;5.70;;;3.78;;
4738;SDS011;2383;48.632;10.156;2022-07-10T06:32:36;8.18;;;3.80;;
4738;SDS011;2383;48.632;10.156;2022-07-10T06:36:39;5.72;;;3.15;;
4738;SDS011;2383;48.632;10.156;2022-07-10T06:40:41;5.78;;;3.00;;
4738;SDS011;2383;48.632;10.156;2022-07-10T06:44:44;5.55;;;2.70;;
4738;SDS011;2383;48.632;10.156;2022-07-10T06:48:46;5.05;;;3.00;;
4738;SDS011;2383;48.632;10.156;2022-07-10T06:52:48;8.43;;;2.95;;
4738;SDS011;2383;48.632;10.156;2022-07-10T06:56:50;6.05;;;2.72;;
4738;SDS011;2383;48.632;10.156;2022-07-10T07:00:52;4.47;;;2.60;;
4738;SDS011;2383;48.632;10.156;2022-07-10T07:04:54;7.00;;;2.97;;
4738;SDS011;2383;48.632;10.156;2022-07-10T07:08:57;6.18;;;2.78;;
4738;SDS011;2383;48.632;10.156;2022-07-10T07:12:59;4.28;;;2.30;;
4738;SDS011;2383;48.632;10.156;2022-07-10T07:17:01;9.55;;;2.47;;
4738;SDS011;2383;48.632;10.156;2022-07-10T07:21:07;6.53;;;2.85;;
4738;SDS011;2383;48.632;10.156;2022-07-10T07:25:39;6.05;;;2.42;;
4738;SDS011;2383;48.632;10.156;2022-07-10T07:29:43;4.85;;;1.98;;
4738;SDS011;2383;48.632;10.156;2022-07-10T07:33:45;4.32;;;1.80;;
4738;SDS011;2383;48.632;10.156;2022-07-10T07:37:48;3.00;;;1.90;;
4738;SDS011;2383;48.632;10.156;2022-07-10T07:41:51;3.90;;;1.83;;
4738;SDS011;2383;48.632;10.156;2022-07-10T07:45:53;4.43;;;1.95;;
4738;SDS011;2383;48.632;10.156;2022-07-10T07:49:56;2.25;;;1.90;;
4738;SDS011;2383;48.632;10.156;2022-07-10T07:53:58;4.97;;;2.28;;
4738;SDS011;2383;48.632;10.156;2022-07-10T07:58:00;5.00;;;1.98;;
4738;SDS011;2383;48.632;10.156;2022-07-10T08:02:04;4.93;;;2.20;;
4738;SDS011;2383;48.632;10.156;2022-07-10T08:06:06;2.63;;;1.92;;
4738;SDS011;2383;48.632;10.156;2022-07-10T08:10:19;3.42;;;1.90;;
4738;SDS011;2383;48.632;10.156;2022-07-10T08:14:21;5.95;;;2.13;;
4738;SDS011;2383;48.632;10.156;2022-07-10T08:18:23;3.30;;;1.70;;
4738;SDS011;2383;48.632;10.156;2022-07-10T08:22:25;4.97;;;1.60;;
4738;SDS011;2383;48.632;10.156;2022-07-10T08:26:27;5.35;;;1.42;;
4738;SDS011;2383;48.632;10.156;2022-07-10T08:30:30;4.00;;;1.48;;
4738;SDS011;2383;48.632;10.156;2022-07-10T08:34:33;3.20;;;1.55;;
4738;SDS011;2383;48.632;10.156;2022-07-10T08:38:41;2.92;;;1.50;;
4738;SDS011;2383;48.632;10.156;2022-07-10T08:42:43;5.38;;;1.40;;
4738;SDS011;2383;48.632;10.156;2022-07-10T08:46:46;5.75;;;1.92;;
4738;SDS011;2383;48.632;10.156;2022-07-10T08:50:53;5.57;;;1.70;;
4738;SDS011;2383;48.632;10.156;2022-07-10T08:54:57;3.92;;;1.30;;
4738;SDS011;2383;48.632;10.156;2022-07-10T08:59:00;3.95;;;1.30;;
4738;SDS011;2383;48.632;10.156;2022-07-10T09:03:04;2.95;;;1.45;;
4738;SDS011;2383;48.632;10.156;2022-07-10T09:07:06;3.17;;;1.23;;
4738;SDS011;2383;48.632;10.156;2022-07-10T09:11:23;4.57;;;1.70;;
4738;SDS011;2383;48.632;10.156;2022-07-10T09:15:27;5.75;;;1.83;;
4738;SDS011;2383;48.632;10.156;2022-07-10T09:19:34;5.55;;;1.80;;
4738;SDS011;2383;48.632;10.156;2022-07-10T09:23:36;3.22;;;1.63;;
4738;SDS011;2383;48.632;10.156;2022-07-10T09:27:50;3.35;;;1.40;;
4738;SDS011;2383;48.632;10.156;2022-07-10T09:31:54;2.30;;;1.55;;
4738;SDS011;2383;48.632;10.156;2022-07-10T09:35:59;4.70;;;1.67;;
4738;SDS011;2383;48.632;10.156;2022-07-10T09:40:11;4.38;;;1.65;;
4738;SDS011;2383;48.632;10.156;2022-07-10T09:44:13;4.20;;;1.40;;
4738;SDS011;2383;48.632;10.156;2022-07-10T09:48:16;6.43;;;1.40;;
4738;SDS011;2383;48.632;10.156;2022-07-10T09:52:24;2.17;;;1.40;;
4738;SDS011;2383;48.632;10.156;2022-07-10T09:56:27;4.43;;;1.40;;
4738;SDS011;2383;48.632;10.156;2022-07-10T10:04:55;4.60;;;1.50;;
4738;SDS011;2383;48.632;10.156;2022-07-10T10:09:04;2.85;;;1.50;;
4738;SDS011;2383;48.632;10.156;2022-07-10T10:13:12;1.60;;;1.10;;
4738;SDS011;2383;48.632;10.156;2022-07-10T10:17:18;4.07;;;1.40;;
4738;SDS011;2383;48.632;10.156;2022-07-10T10:21:23;3.00;;;1.50;;
4738;SDS011;2383;48.632;10.156;2022-07-10T10:25:26;3.33;;;1.38;;
4738;SDS011;2383;48.632;10.156;2022-07-10T10:29:29;3.25;;;1.60;;
4738;SDS011;2383;48.632;10.156;2022-07-10T10:37:40;3.85;;;1.40;;
4738;SDS011;2383;48.632;10.156;2022-07-10T10:41:47;3.25;;;1.30;;
4738;SDS011;2383;48.632;10.156;2022-07-10T10:45:52;5.55;;;1.75;;
4738;SDS011;2383;48.632;10.156;2022-07-10T10:49:56;3.08;;;1.60;;
4738;SDS011;2383;48.632;10.156;2022-07-10T10:54:05;6.03;;;1.60;;
4738;SDS011;2383;48.632;10.156;2022-07-10T10:58:11;4.25;;;1.80;;
4738;SDS011;2383;48.632;10.156;2022-07-10T11:02:24;3.05;;;1.55;;
4738;SDS011;2383;48.632;10.156;2022-07-10T11:06:43;1.73;;;1.45;;
4738;SDS011;2383;48.632;10.156;2022-07-10T11:10:46;2.20;;;1.25;;
4738;SDS011;2383;48.632;10.156;2022-07-10T11:14:50;4.63;;;1.80;;
4738;SDS011;2383;48.632;10.156;2022-07-10T11:18:54;2.70;;;1.55;;
4738;SDS011;2383;48.632;10.156;2022-07-10T11:31:34;3.08;;;1.35;;
4738;SDS011;2383;48.632;10.156;2022-07-10T11:35:45;3.45;;;1.60;;
4738;SDS011;2383;48.632;10.156;2022-07-10T11:39:47;3.63;;;1.30;;
4738;SDS011;2383;48.632;10.156;2022-07-10T11:43:51;2.20;;;1.00;;
4738;SDS011;2383;48.632;10.156;2022-07-10T11:47:54;3.60;;;1.48;;
4738;SDS011;2383;48.632;10.156;2022-07-10T11:52:03;7.30;;;1.52;;
4738;SDS011;2383;48.632;10.156;2022-07-10T11:56:05;2.72;;;1.40;;
4738;SDS011;2383;48.632;10.156;2022-07-10T12:00:19;2.15;;;1.10;;
4738;SDS011;2383;48.632;10.156;2022-07-10T12:04:28;3.10;;;1.25;;
4738;SDS011;2383;48.632;10.156;2022-07-10T12:08:41;4.50;;;1.40;;
4738;SDS011;2383;48.632;10.156;2022-07-10T12:12:46;1.83;;;1.20;;
4738;SDS011;2383;48.632;10.156;2022-07-10T12:16:51;3.85;;;1.38;;
4738;SDS011;2383;48.632;10.156;2022-07-10T12:20:54;3.22;;;1.45;;
4738;SDS011;2383;48.632;10.156;2022-07-10T12:24:56;2.63;;;1.20;;
4738;SDS011;2383;48.632;10.156;2022-07-10T12:28:58;2.42;;;1.25;;
4738;SDS011;2383;48.632;10.156;2022-07-10T12:33:05;2.75;;;1.20;;
4738;SDS011;2383;48.632;10.156;2022-07-10T12:37:23;4.40;;;1.48;;
4738;SDS011;2383;48.632;10.156;2022-07-10T12:41:25;1.52;;;1.00;;
4738;SDS011;2383;48.632;10.156;2022-07-10T12:45:27;1.45;;;1.00;;
4738;SDS011;2383;48.632;10.156;2022-07-10T12:49:29;3.63;;;1.25;;
4738;SDS011;2383;48.632;10.156;2022-07-10T12:53:31;1.63;;;1.10;;
4738;SDS011;2383;48.632;10.156;2022-07-10T12:57:43;2.83;;;1.00;;
4738;SDS011;2383;48.632;10.156;2022-07-10T13:01:57;2.40;;;0.93;;
4738;SDS011;2383;48.632;10.156;2022-07-10T13:06:00;2.65;;;1.25;;
4738;SDS011;2383;48.632;10.156;2022-07-10T13:10:06;2.80;;;1.17;;
4738;SDS011;2383;48.632;10.156;2022-07-10T13:14:08;3.03;;;1.20;;
4738;SDS011;2383;48.632;10.156;2022-07-10T13:18:14;1.20;;;1.00;;
4738;SDS011;2383;48.632;10.156;2022-07-10T13:22:20;6.13;;;1.00;;
4738;SDS011;2383;48.632;10.156;2022-07-10T13:26:22;1.52;;;0.80;;
4738;SDS011;2383;48.632;10.156;2022-07-10T13:30:24;2.38;;;1.00;;
4738;SDS011;2383;48.632;10.156;2022-07-10T13:34:26;3.35;;;1.13;;
4738;SDS011;2383;48.632;10.156;2022-07-10T13:38:28;2.65;;;1.00;;
4738;SDS011;2383;48.632;10.156;2022-07-10T13:42:30;2.90;;;1.20;;
4738;SDS011;2383;48.632;10.156;2022-07-10T13:46:31;3.70;;;1.00;;
4738;SDS011;2383;48.632;10.156;2022-07-10T13:50:34;2.60;;;1.00;;
4738;SDS011;2383;48.632;10.156;2022-07-10T13:54:36;1.02;;;0.90;;
4738;SDS011;2383;48.632;10.156;2022-07-10T13:58:38;4.85;;;1.05;;
4738;SDS011;2383;48.632;10.156;2022-07-10T14:02:40;2.88;;;0.90;;
4738;SDS011;2383;48.632;10.156;2022-07-10T14:06:42;4.07;;;1.10;;
4738;SDS011;2383;48.632;10.156;2022-07-10T14:10:44;3.55;;;0.80;;
4738;SDS011;2383;48.632;10.156;2022-07-10T14:14:46;2.22;;;0.95;;
4738;SDS011;2383;48.632;10.156;2022-07-10T14:18:48;2.35;;;0.90;;
4738;SDS011;2383;48.632;10.156;2022-07-10T14:22:50;2.45;;;0.88;;
4738;SDS011;2383;48.632;10.156;2022-07-10T14:26:52;2.15;;;1.00;;
4738;SDS011;2383;48.632;10.156;2022-07-10T14:30:54;4.68;;;0.88;;
4738;SDS011;2383;48.632;10.156;2022-07-10T14:34:56;1.77;;;0.80;;
4738;SDS011;2383;48.632;10.156;2022-07-10T14:38:58;3.30;;;1.08;;
4738;SDS011;2383;48.632;10.156;2022-07-10T14:43:00;1.83;;;1.08;;
4738;SDS011;2383;48.632;10.156;2022-07-10T14:47:02;1.55;;;0.80;;
4738;SDS011;2383;48.632;10.156;2022-07-10T14:51:06;4.63;;;1.00;;
4738;SDS011;2383;48.632;10.156;2022-07-10T14:55:11;6.38;;;0.90;;
4738;SDS011;2383;48.632;10.156;2022-07-10T14:59:16;2.13;;;1.00;;
4738;SDS011;2383;48.632;10.156;2022-07-10T15:03:18;2.00;;;1.00;;
4738;SDS011;2383;48.632;10.156;2022-07-10T15:07:20;3.28;;;1.15;;
4738;SDS011;2383;48.632;10.156;2022-07-10T15:11:22;1.90;;;0.70;;
4738;SDS011;2383;48.632;10.156;2022-07-10T15:15:24;3.40;;;1.10;;
4738;SDS011;2383;48.632;10.156;2022-07-10T15:19:26;2.60;;;1.05;;
4738;SDS011;2383;48.632;10.156;2022-07-10T15:23:28;2.60;;;1.00;;
4738;SDS011;2383;48.632;10.156;2022-07-10T15:27:30;1.67;;;0.80;;
4738;SDS011;2383;48.632;10.156;2022-07-10T15:31:37;2.20;;;0.80;;
4738;SDS011;2383;48.632;10.156;2022-07-10T15:35:39;1.60;;;0.90;;
4738;SDS011;2383;48.632;10.156;2022-07-10T15:39:41;2.05;;;1.00;;
4738;SDS011;2383;48.632;10.156;2022-07-10T15:43:42;1.85;;;0.90;;
4738;SDS011;2383;48.632;10.156;2022-07-10T15:47:46;4.30;;;1.00;;
4738;SDS011;2383;48.632;10.156;2022-07-10T15:52:00;4.72;;;1.40;;
4738;SDS011;2383;48.632;10.156;2022-07-10T15:56:05;4.40;;;1.00;;
4738;SDS011;2383;48.632;10.156;2022-07-10T16:00:08;1.13;;;0.77;;
4738;SDS011;2383;48.632;10.156;2022-07-10T16:04:10;3.72;;;1.02;;
4738;SDS011;2383;48.632;10.156;2022-07-10T16:08:12;2.50;;;0.82;;
4738;SDS011;2383;48.632;10.156;2022-07-10T16:12:15;3.40;;;0.90;;
4738;SDS011;2383;48.632;10.156;2022-07-10T16:16:17;2.70;;;0.95;;
4738;SDS011;2383;48.632;10.156;2022-07-10T16:20:18;1.85;;;0.77;;
4738;SDS011;2383;48.632;10.156;2022-07-10T16:24:20;2.78;;;0.95;;
4738;SDS011;2383;48.632;10.156;2022-07-10T16:28:22;3.10;;;0.80;;
4738;SDS011;2383;48.632;10.156;2022-07-10T16:32:24;2.40;;;0.80;;
4738;SDS011;2383;48.632;10.156;2022-07-10T16:36:31;1.98;;;1.00;;
4738;SDS011;2383;48.632;10.156;2022-07-10T16:40:33;2.42;;;0.75;;
4738;SDS011;2383;48.632;10.156;2022-07-10T16:44:35;2.80;;;0.77;;
4738;SDS011;2383;48.632;10.156;2022-07-10T16:48:37;2.13;;;0.90;;
4738;SDS011;2383;48.632;10.156;2022-07-10T16:52:38;3.10;;;0.70;;
4738;SDS011;2383;48.632;10.156;2022-07-10T16:56:42;2.75;;;0.80;;
4738;SDS011;2383;48.632;10.156;2022-07-10T17:00:45;2.72;;;0.85;;
4738;SDS011;2383;48.632;10.156;2022-07-10T17:04:46;1.10;;;0.60;;
4738;SDS011;2383;48.632;10.156;2022-07-10T17:08:48;2.13;;;1.00;;
4738;SDS011;2383;48.632;10.156;2022-07-10T17:12:50;1.77;;;0.70;;
4738;SDS011;2383;48.632;10.156;2022-07-10T17:16:53;2.47;;;1.00;;
4738;SDS011;2383;48.632;10.156;2022-07-10T17:20:55;1.48;;;0.70;;
4738;SDS011;2383;48.632;10.156;2022-07-10T17:24:56;1.67;;;0.82;;
4738;SDS011;2383;48.632;10.156;2022-07-10T17:29:01;1.73;;;0.70;;
4738;SDS011;2383;48.632;10.156;2022-07-10T17:33:03;3.50;;;0.80;;
4738;SDS011;2383;48.632;10.156;2022-07-10T17:37:08;3.25;;;1.00;;
4738;SDS011;2383;48.632;10.156;2022-07-10T17:41:10;2.40;;;0.90;;
4738;SDS011;2383;48.632;10.156;2022-07-10T17:45:12;0.80;;;0.80;;
4738;SDS011;2383;48.632;10.156;2022-07-10T17:49:17;3.17;;;0.82;;
4738;SDS011;2383;48.632;10.156;2022-07-10T17:53:19;0.65;;;0.65;;
4738;SDS011;2383;48.632;10.156;2022-07-10T17:57:21;4.97;;;0.98;;
4738;SDS011;2383;48.632;10.156;2022-07-10T18:01:24;0.80;;;0.68;;
4738;SDS011;2383;48.632;10.156;2022-07-10T18:05:26;2.90;;;0.90;;
4738;SDS011;2383;48.632;10.156;2022-07-10T18:09:28;2.80;;;0.90;;
4738;SDS011;2383;48.632;10.156;2022-07-10T18:13:30;3.15;;;0.70;;
4738;SDS011;2383;48.632;10.156;2022-07-10T18:17:32;1.92;;;0.85;;
4738;SDS011;2383;48.632;10.156;2022-07-10T18:21:34;3.13;;;0.70;;
4738;SDS011;2383;48.632;10.156;2022-07-10T18:25:36;4.25;;;0.80;;
4738;SDS011;2383;48.632;10.156;2022-07-10T18:29:40;4.15;;;0.90;;
4738;SDS011;2383;48.632;10.156;2022-07-10T18:33:42;1.02;;;0.70;;
4738;SDS011;2383;48.632;10.156;2022-07-10T18:38:04;2.05;;;0.77;;
4738;SDS011;2383;48.632;10.156;2022-07-10T18:42:06;0.90;;;0.70;;
4738;SDS011;2383;48.632;10.156;2022-07-10T18:46:07;1.63;;;0.70;;
4738;SDS011;2383;48.632;10.156;2022-07-10T18:50:09;2.80;;;0.93;;
4738;SDS011;2383;48.632;10.156;2022-07-10T18:54:11;1.05;;;0.80;;
4738;SDS011;2383;48.632;10.156;2022-07-10T18:58:14;1.15;;;0.80;;
4738;SDS011;2383;48.632;10.156;2022-07-10T19:02:16;1.50;;;0.80;;
4738;SDS011;2383;48.632;10.156;2022-07-10T19:06:18;3.13;;;0.85;;
4738;SDS011;2383;48.632;10.156;2022-07-10T19:10:20;4.32;;;1.42;;
4738;SDS011;2383;48.632;10.156;2022-07-10T19:14:22;3.85;;;0.95;;
4738;SDS011;2383;48.632;10.156;2022-07-10T19:18:27;3.28;;;0.93;;
4738;SDS011;2383;48.632;10.156;2022-07-10T19:22:29;3.42;;;1.42;;
4738;SDS011;2383;48.632;10.156;2022-07-10T19:26:31;4.15;;;1.27;;
4738;SDS011;2383;48.632;10.156;2022-07-10T19:30:33;1.60;;;0.90;;
4738;SDS011;2383;48.632;10.156;2022-07-10T19:34:36;1.27;;;1.02;;
4738;SDS011;2383;48.632;10.156;2022-07-10T19:38:38;2.47;;;1.10;;
4738;SDS011;2383;48.632;10.156;2022-07-10T19:42:40;2.40;;;1.05;;
4738;SDS011;2383;48.632;10.156;2022-07-10T19:46:42;3.28;;;1.20;;
4738;SDS011;2383;48.632;10.156;2022-07-10T19:50:44;5.18;;;1.00;;
4738;SDS011;2383;48.632;10.156;2022-07-10T19:54:45;2.70;;;1.02;;
4738;SDS011;2383;48.632;10.156;2022-07-10T19:58:47;1.38;;;0.82;;
4738;SDS011;2383;48.632;10.156;2022-07-10T20:02:49;2.47;;;1.45;;
4738;SDS011;2383;48.632;10.156;2022-07-10T20:06:53;1.85;;;1.00;;
4738;SDS011;2383;48.632;10.156;2022-07-10T20:10:55;6.57;;;2.38;;
4738;SDS011;2383;48.632;10.156;2022-07-10T20:14:56;8.80;;;5.63;;
4738;SDS011;2383;48.632;10.156;2022-07-10T20:18:58;4.95;;;3.55;;
4738;SDS011;2383;48.632;10.156;2022-07-10T20:23:00;1.92;;;1.35;;
4738;SDS011;2383;48.632;10.156;2022-07-10T20:27:02;2.03;;;1.00;;
4738;SDS011;2383;48.632;10.156;2022-07-10T20:31:04;2.03;;;1.10;;
4738;SDS011;2383;48.632;10.156;2022-07-10T20:35:07;2.88;;;1.15;;
4738;SDS011;2383;48.632;10.156;2022-07-10T20:39:09;3.35;;;1.20;;
4738;SDS011;2383;48.632;10.156;2022-07-10T20:43:11;2.47;;;1.00;;
4738;SDS011;2383;48.632;10.156;2022-07-10T20:47:13;1.67;;;1.02;;
4738;SDS011;2383;48.632;10.156;2022-07-10T20:51:14;9.18;;;4.72;;
4738;SDS011;2383;48.632;10.156;2022-07-10T20:55:17;6.97;;;2.70;;
4738;SDS011;2383;48.632;10.156;2022-07-10T20:59:19;1.65;;;1.20;;
4738;SDS011;2383;48.632;10.156;2022-07-10T21:03:21;4.60;;;2.00;;
4738;SDS011;2383;48.632;10.156;2022-07-10T21:07:24;2.45;;;1.05;;
4738;SDS011;2383;48.632;10.156;2022-07-10T21:11:26;2.67;;;1.00;;
4738;SDS011;2383;48.632;10.156;2022-07-10T21:15:28;3.88;;;1.60;;
4738;SDS011;2383;48.632;10.156;2022-07-10T21:19:30;3.80;;;1.40;;
4738;SDS011;2383;48.632;10.156;2022-07-10T21:23:32;4.00;;;1.30;;
4738;SDS011;2383;48.632;10.156;2022-07-10T21:27:42;3.13;;;1.17;;
4738;SDS011;2383;48.632;10.156;2022-07-10T21:31:44;2.08;;;1.00;;
4738;SDS011;2383;48.632;10.156;2022-07-10T21:35:46;2.58;;;1.10;;
4738;SDS011;2383;48.632;10.156;2022-07-10T21:39:48;1.30;;;1.05;;
4738;SDS011;2383;48.632;10.156;2022-07-10T21:43:50;2.58;;;1.27;;
4738;SDS011;2383;48.632;10.156;2022-07-10T21:47:51;1.88;;;1.13;;
4738;SDS011;2383;48.632;10.156;2022-07-10T21:51:53;3.13;;;1.10;;
4738;SDS011;2383;48.632;10.156;2022-07-10T21:55:56;5.15;;;1.30;;
4738;SDS011;2383;48.632;10.156;2022-07-10T21:59:58;3.53;;;1.35;;
4738;SDS011;2383;48.632;10.156;2022-07-10T22:04:00;2.30;;;1.10;;
4738;SDS011;2383;48.632;10.156;2022-07-10T22:12:42;1.80;;;1.10;;
4738;SDS011;2383;48.632;10.156;2022-07-10T22:16:43;2.58;;;1.30;;
4738;SDS011;2383;48.632;10.156;2022-07-10T22:20:46;2.10;;;1.02;;
4738;SDS011;2383;48.632;10.156;2022-07-10T22:24:49;3.35;;;1.13;;
4738;SDS011;2383;48.632;10.156;2022-07-10T22:28:51;1.70;;;1.30;;
4738;SDS011;2383;48.632;10.156;2022-07-10T22:32:53;2.53;;;1.13;;
4738;SDS011;2383;48.632;10.156;2022-07-10T22:36:55;1.95;;;1.35;;
4738;SDS011;2383;48.632;10.156;2022-07-10T22:40:59;2.30;;;1.30;;
4738;SDS011;2383;48.632;10.156;2022-07-10T22:45:01;2.85;;;1.40;;
4738;SDS011;2383;48.632;10.156;2022-07-10T22:49:03;2.22;;;1.30;;
4738;SDS011;2383;48.632;10.156;2022-07-10T22:53:05;1.73;;;1.15;;
4738;SDS011;2383;48.632;10.156;2022-07-10T22:57:12;1.50;;;1.23;;
4738;SDS011;2383;48.632;10.156;2022-07-10T23:01:13;1.63;;;1.38;;
4738;SDS011;2383;48.632;10.156;2022-07-10T23:05:15;2.63;;;1.50;;
4738;SDS011;2383;48.632;10.156;2022-07-10T23:09:18;2.78;;;1.63;;
4738;SDS011;2383;48.632;10.156;2022-07-10T23:13:20;2.85;;;1.50;;
4738;SDS011;2383;48.632;10.156;2022-07-10T23:17:21;3.08;;;1.30;;
4738;SDS011;2383;48.632;10.156;2022-07-10T23:21:23;1.40;;;1.20;;
4738;SDS011;2383;48.632;10.156;2022-07-10T23:25:26;1.95;;;1.20;;
4738;SDS011;2383;48.632;10.156;2022-07-10T23:29:28;3.33;;;1.27;;
4738;SDS011;2383;48.632;10.156;2022-07-10T23:33:30;2.53;;;1.38;;
4738;SDS011;2383;48.632;10.156;2022-07-10T23:37:31;2.15;;;1.20;;
4738;SDS011;2383;48.632;10.156;2022-07-10T23:41:34;1.95;;;1.20;;
4738;SDS011;2383;48.632;10.156;2022-07-10T23:45:36;2.50;;;1.35;;
4738;SDS011;2383;48.632;10.156;2022-07-10T23:49:38;2.45;;;1.40;;
4738;SDS011;2383;48.632;10.156;2022-07-10T23:53:58;5.15;;;1.42;;
4738;SDS011;2383;48.632;10.156;2022-07-10T23:58:00;3.05;;;1.98;;
